Terminal Aerodrome Forecast
Issued by NWS

Home | Current Version | Previous Version | Text Only | Print | Product List | Glossary On
Versions: 1 2 3 4 5 6 7 8 9 10 11 12 13 14 15 16 17 18 19 20 21 22 23 24 25 26
338
FTAK31 PANC 091126
TAFAHO
TAF
PAHO 091126Z 0912/1012 03004KT P6SM VCSH BKN035 BKN070
     FM091800 06005KT P6SM SCT035 BKN060
     FM100000 04006KT P6SM FEW060 SCT120=

USA.gov is the U.S. government's official web portal to all federal, state and local government web resources and services.